sensor_id;sensor_type;location;lat;lon;timestamp;pressure;altitude;pressure_sealevel;temperature;humidity
35435;BME280;21556;55.782;37.528;2023-02-14T00:00:17;98548.41;;;2.19;100.00
35435;BME280;21556;55.782;37.528;2023-02-14T00:02:43;98530.72;;;2.33;100.00
35435;BME280;21556;55.782;37.528;2023-02-14T00:05:09;98546.66;;;2.18;100.00
35435;BME280;21556;55.782;37.528;2023-02-14T00:07:35;98543.75;;;2.09;100.00
35435;BME280;21556;55.782;37.528;2023-02-14T00:10:02;98536.75;;;2.06;100.00
35435;BME280;21556;55.782;37.528;2023-02-14T00:12:29;98537.41;;;1.99;100.00
35435;BME280;21556;55.782;37.528;2023-02-14T00:14:55;98544.25;;;1.97;100.00
35435;BME280;21556;55.782;37.528;2023-02-14T00:17:39;98552.88;;;1.98;100.00
35435;BME280;21556;55.782;37.528;2023-02-14T00:20:06;98544.94;;;2.19;100.00
35435;BME280;21556;55.782;37.528;2023-02-14T00:22:32;98554.84;;;2.05;100.00
35435;BME280;21556;55.782;37.528;2023-02-14T00:24:58;98551.13;;;2.24;100.00
35435;BME280;21556;55.782;37.528;2023-02-14T00:27:23;98549.88;;;2.11;100.00
35435;BME280;21556;55.782;37.528;2023-02-14T00:29:49;98559.16;;;2.04;100.00
35435;BME280;21556;55.782;37.528;2023-02-14T00:32:15;98546.97;;;2.02;100.00
35435;BME280;21556;55.782;37.528;2023-02-14T00:34:41;98553.03;;;1.75;100.00
35435;BME280;21556;55.782;37.528;2023-02-14T00:37:09;98550.16;;;1.93;100.00
35435;BME280;21556;55.782;37.528;2023-02-14T00:39:35;98553.34;;;2.11;100.00
35435;BME280;21556;55.782;37.528;2023-02-14T00:42:04;98553.41;;;1.60;100.00
35435;BME280;21556;55.782;37.528;2023-02-14T00:44:30;98560.97;;;1.81;100.00
35435;BME280;21556;55.782;37.528;2023-02-14T00:46:56;98567.91;;;1.82;100.00
35435;BME280;21556;55.782;37.528;2023-02-14T00:49:22;98567.53;;;1.97;100.00
35435;BME280;21556;55.782;37.528;2023-02-14T00:51:48;98568.44;;;1.99;100.00
35435;BME280;21556;55.782;37.528;2023-02-14T00:54:14;98579.25;;;1.86;100.00
35435;BME280;21556;55.782;37.528;2023-02-14T00:56:40;98562.47;;;2.00;100.00
35435;BME280;21556;55.782;37.528;2023-02-14T00:59:08;98559.31;;;2.10;100.00
35435;BME280;21556;55.782;37.528;2023-02-14T01:01:34;98555.97;;;2.13;100.00
35435;BME280;21556;55.782;37.528;2023-02-14T01:04:02;98558.50;;;2.11;100.00
35435;BME280;21556;55.782;37.528;2023-02-14T01:06:28;98567.13;;;1.85;100.00
35435;BME280;21556;55.782;37.528;2023-02-14T01:08:55;98564.66;;;2.15;100.00
35435;BME280;21556;55.782;37.528;2023-02-14T01:11:23;98563.22;;;2.25;100.00
35435;BME280;21556;55.782;37.528;2023-02-14T01:13:54;98557.31;;;2.02;100.00
35435;BME280;21556;55.782;37.528;2023-02-14T01:16:24;98566.72;;;2.00;100.00
35435;BME280;21556;55.782;37.528;2023-02-14T01:18:50;98562.13;;;1.89;100.00
35435;BME280;21556;55.782;37.528;2023-02-14T01:21:22;98577.56;;;1.88;100.00
35435;BME280;21556;55.782;37.528;2023-02-14T01:23:51;98579.88;;;2.06;100.00
35435;BME280;21556;55.782;37.528;2023-02-14T01:26:19;98586.63;;;2.01;100.00
35435;BME280;21556;55.782;37.528;2023-02-14T01:28:46;98585.38;;;2.15;100.00
35435;BME280;21556;55.782;37.528;2023-02-14T01:31:15;98596.78;;;2.22;100.00
35435;BME280;21556;55.782;37.528;2023-02-14T01:33:43;98601.91;;;1.93;100.00
35435;BME280;21556;55.782;37.528;2023-02-14T01:36:27;98594.72;;;2.11;100.00
35435;BME280;21556;55.782;37.528;2023-02-14T01:38:57;98596.44;;;2.11;100.00
35435;BME280;21556;55.782;37.528;2023-02-14T01:41:24;98596.28;;;2.06;100.00
35435;BME280;21556;55.782;37.528;2023-02-14T01:43:59;98597.03;;;1.77;100.00
35435;BME280;21556;55.782;37.528;2023-02-14T01:46:30;98602.56;;;1.87;100.00
35435;BME280;21556;55.782;37.528;2023-02-14T01:49:02;98602.03;;;1.98;100.00
35435;BME280;21556;55.782;37.528;2023-02-14T01:51:31;98612.59;;;2.04;100.00
35435;BME280;21556;55.782;37.528;2023-02-14T01:54:00;98613.31;;;2.00;100.00
35435;BME280;21556;55.782;37.528;2023-02-14T01:56:33;98604.41;;;1.91;100.00
35435;BME280;21556;55.782;37.528;2023-02-14T01:59:02;98605.38;;;1.44;100.00
35435;BME280;21556;55.782;37.528;2023-02-14T02:01:32;98622.25;;;1.34;100.00
35435;BME280;21556;55.782;37.528;2023-02-14T02:04:12;98611.19;;;1.62;100.00
35435;BME280;21556;55.782;37.528;2023-02-14T02:06:44;98617.69;;;1.51;100.00
35435;BME280;21556;55.782;37.528;2023-02-14T02:09:20;98625.84;;;1.14;100.00
35435;BME280;21556;55.782;37.528;2023-02-14T02:11:48;98629.59;;;0.98;100.00
35435;BME280;21556;55.782;37.528;2023-02-14T02:14:18;98627.06;;;1.24;100.00
35435;BME280;21556;55.782;37.528;2023-02-14T02:20:17;98627.56;;;1.63;100.00
35435;BME280;21556;55.782;37.528;2023-02-14T02:26:16;98630.34;;;1.67;100.00
35435;BME280;21556;55.782;37.528;2023-02-14T02:46:40;98628.31;;;1.84;100.00
35435;BME280;21556;55.782;37.528;2023-02-14T02:49:24;98634.78;;;1.97;100.00
35435;BME280;21556;55.782;37.528;2023-02-14T02:55:05;98628.78;;;1.98;100.00
35435;BME280;21556;55.782;37.528;2023-02-14T02:57:36;98630.47;;;1.96;100.00
35435;BME280;21556;55.782;37.528;2023-02-14T03:00:06;98626.72;;;1.88;100.00
35435;BME280;21556;55.782;37.528;2023-02-14T03:02:37;98623.56;;;1.97;100.00
35435;BME280;21556;55.782;37.528;2023-02-14T03:05:24;98625.59;;;1.80;100.00
35435;BME280;21556;55.782;37.528;2023-02-14T03:07:50;98626.69;;;1.86;100.00
35435;BME280;21556;55.782;37.528;2023-02-14T03:10:27;98625.25;;;1.71;100.00
35435;BME280;21556;55.782;37.528;2023-02-14T03:13:07;98625.59;;;2.07;100.00
35435;BME280;21556;55.782;37.528;2023-02-14T03:15:51;98623.16;;;1.84;100.00
35435;BME280;21556;55.782;37.528;2023-02-14T03:18:25;98622.34;;;1.85;100.00
35435;BME280;21556;55.782;37.528;2023-02-14T03:32:42;98635.97;;;2.07;100.00
35435;BME280;21556;55.782;37.528;2023-02-14T03:35:21;98641.13;;;2.07;100.00
35435;BME280;21556;55.782;37.528;2023-02-14T03:41:03;98643.28;;;2.19;100.00
35435;BME280;21556;55.782;37.528;2023-02-14T03:43:51;98637.91;;;2.14;100.00
35435;BME280;21556;55.782;37.528;2023-02-14T03:48:51;98643.63;;;2.29;100.00
35435;BME280;21556;55.782;37.528;2023-02-14T03:51:20;98643.03;;;2.11;100.00
35435;BME280;21556;55.782;37.528;2023-02-14T03:53:51;98645.69;;;2.14;100.00
35435;BME280;21556;55.782;37.528;2023-02-14T03:56:45;98645.81;;;1.91;100.00
35435;BME280;21556;55.782;37.528;2023-02-14T03:59:22;98644.78;;;2.12;100.00
35435;BME280;21556;55.782;37.528;2023-02-14T04:02:16;98657.44;;;2.30;100.00
35435;BME280;21556;55.782;37.528;2023-02-14T04:04:45;98653.56;;;2.17;100.00
35435;BME280;21556;55.782;37.528;2023-02-14T04:07:15;98665.94;;;2.26;100.00
35435;BME280;21556;55.782;37.528;2023-02-14T04:09:42;98665.50;;;1.88;100.00
35435;BME280;21556;55.782;37.528;2023-02-14T04:12:08;98670.44;;;2.06;100.00
35435;BME280;21556;55.782;37.528;2023-02-14T04:14:35;98678.91;;;1.76;100.00
35435;BME280;21556;55.782;37.528;2023-02-14T04:17:01;98676.47;;;1.81;100.00
35435;BME280;21556;55.782;37.528;2023-02-14T04:19:46;98680.78;;;1.80;100.00
35435;BME280;21556;55.782;37.528;2023-02-14T04:22:11;98677.91;;;1.73;100.00
35435;BME280;21556;55.782;37.528;2023-02-14T04:24:37;98682.31;;;1.75;100.00
35435;BME280;21556;55.782;37.528;2023-02-14T04:27:03;98683.09;;;1.73;100.00
35435;BME280;21556;55.782;37.528;2023-02-14T04:32:03;98688.59;;;1.82;100.00
35435;BME280;21556;55.782;37.528;2023-02-14T04:34:29;98690.25;;;1.80;100.00
35435;BME280;21556;55.782;37.528;2023-02-14T04:36:55;98697.41;;;1.88;100.00
35435;BME280;21556;55.782;37.528;2023-02-14T04:39:21;98692.59;;;1.98;100.00
35435;BME280;21556;55.782;37.528;2023-02-14T04:41:49;98699.09;;;1.62;100.00
35435;BME280;21556;55.782;37.528;2023-02-14T04:44:23;98700.56;;;2.04;100.00
35435;BME280;21556;55.782;37.528;2023-02-14T04:46:49;98707.78;;;1.88;100.00
35435;BME280;21556;55.782;37.528;2023-02-14T04:49:15;98714.47;;;1.82;100.00
35435;BME280;21556;55.782;37.528;2023-02-14T04:51:41;98712.66;;;2.05;100.00
35435;BME280;21556;55.782;37.528;2023-02-14T04:54:07;98710.22;;;2.09;100.00
35435;BME280;21556;55.782;37.528;2023-02-14T04:56:33;98723.16;;;2.09;100.00
35435;BME280;21556;55.782;37.528;2023-02-14T04:58:59;98725.38;;;1.99;100.00
35435;BME280;21556;55.782;37.528;2023-02-14T05:01:25;98727.50;;;2.10;100.00
35435;BME280;21556;55.782;37.528;2023-02-14T05:03:51;98723.94;;;2.07;100.00
35435;BME280;21556;55.782;37.528;2023-02-14T05:06:17;98732.34;;;2.25;100.00
35435;BME280;21556;55.782;37.528;2023-02-14T05:08:44;98735.72;;;1.99;100.00
35435;BME280;21556;55.782;37.528;2023-02-14T05:11:10;98744.81;;;1.87;100.00
35435;BME280;21556;55.782;37.528;2023-02-14T05:13:36;98746.34;;;2.06;100.00
35435;BME280;21556;55.782;37.528;2023-02-14T05:16:02;98750.72;;;2.07;100.00
35435;BME280;21556;55.782;37.528;2023-02-14T05:18:28;98744.34;;;2.23;100.00
35435;BME280;21556;55.782;37.528;2023-02-14T05:20:54;98754.44;;;1.43;100.00
35435;BME280;21556;55.782;37.528;2023-02-14T05:23:20;98756.25;;;1.94;100.00
35435;BME280;21556;55.782;37.528;2023-02-14T05:25:47;98764.91;;;1.95;100.00
35435;BME280;21556;55.782;37.528;2023-02-14T05:28:14;98760.59;;;1.95;100.00
35435;BME280;21556;55.782;37.528;2023-02-14T05:30:40;98757.84;;;2.14;100.00
35435;BME280;21556;55.782;37.528;2023-02-14T05:33:06;98762.66;;;2.04;100.00
35435;BME280;21556;55.782;37.528;2023-02-14T05:35:32;98758.56;;;2.10;100.00
35435;BME280;21556;55.782;37.528;2023-02-14T05:37:58;98761.25;;;2.13;100.00
35435;BME280;21556;55.782;37.528;2023-02-14T05:40:27;98764.09;;;2.21;100.00
35435;BME280;21556;55.782;37.528;2023-02-14T05:42:54;98762.34;;;2.20;100.00
35435;BME280;21556;55.782;37.528;2023-02-14T05:45:20;98766.75;;;2.23;100.00
35435;BME280;21556;55.782;37.528;2023-02-14T05:47:47;98766.97;;;2.29;100.00
35435;BME280;21556;55.782;37.528;2023-02-14T05:50:19;98769.28;;;2.21;100.00
35435;BME280;21556;55.782;37.528;2023-02-14T05:52:45;98773.78;;;2.01;100.00
35435;BME280;21556;55.782;37.528;2023-02-14T05:55:11;98766.53;;;2.16;100.00
35435;BME280;21556;55.782;37.528;2023-02-14T05:57:38;98770.84;;;1.68;100.00
35435;BME280;21556;55.782;37.528;2023-02-14T06:00:05;98770.69;;;2.11;100.00
35435;BME280;21556;55.782;37.528;2023-02-14T06:02:38;98771.06;;;1.98;100.00
35435;BME280;21556;55.782;37.528;2023-02-14T06:05:04;98768.91;;;2.10;100.00
35435;BME280;21556;55.782;37.528;2023-02-14T06:07:30;98767.03;;;2.06;100.00
35435;BME280;21556;55.782;37.528;2023-02-14T06:09:56;98774.41;;;2.20;100.00
35435;BME280;21556;55.782;37.528;2023-02-14T06:12:22;98767.97;;;2.08;100.00
35435;BME280;21556;55.782;37.528;2023-02-14T06:14:48;98764.91;;;2.19;100.00
35435;BME280;21556;55.782;37.528;2023-02-14T06:17:14;98764.84;;;1.69;100.00
35435;BME280;21556;55.782;37.528;2023-02-14T06:19:39;98768.53;;;2.00;100.00
35435;BME280;21556;55.782;37.528;2023-02-14T06:22:05;98765.41;;;2.08;100.00
35435;BME280;21556;55.782;37.528;2023-02-14T06:24:31;98777.50;;;2.09;100.00
35435;BME280;21556;55.782;37.528;2023-02-14T06:26:58;98773.88;;;2.04;100.00
35435;BME280;21556;55.782;37.528;2023-02-14T06:29:24;98779.59;;;1.72;100.00
35435;BME280;21556;55.782;37.528;2023-02-14T06:31:50;98777.38;;;2.06;100.00
35435;BME280;21556;55.782;37.528;2023-02-14T06:34:16;98774.38;;;2.18;100.00
35435;BME280;21556;55.782;37.528;2023-02-14T06:36:42;98786.63;;;2.24;100.00
35435;BME280;21556;55.782;37.528;2023-02-14T06:39:08;98785.59;;;2.19;100.00
35435;BME280;21556;55.782;37.528;2023-02-14T06:41:33;98787.63;;;2.27;100.00
35435;BME280;21556;55.782;37.528;2023-02-14T06:43:59;98789.81;;;2.40;100.00
35435;BME280;21556;55.782;37.528;2023-02-14T06:46:25;98794.16;;;2.17;100.00
35435;BME280;21556;55.782;37.528;2023-02-14T06:48:51;98797.38;;;2.10;100.00
35435;BME280;21556;55.782;37.528;2023-02-14T06:51:17;98797.97;;;2.03;100.00
35435;BME280;21556;55.782;37.528;2023-02-14T06:53:43;98807.22;;;1.73;100.00
35435;BME280;21556;55.782;37.528;2023-02-14T06:56:09;98807.22;;;2.21;100.00
35435;BME280;21556;55.782;37.528;2023-02-14T06:58:36;98812.56;;;2.01;100.00
35435;BME280;21556;55.782;37.528;2023-02-14T07:01:03;98812.25;;;2.16;100.00
35435;BME280;21556;55.782;37.528;2023-02-14T07:03:29;98804.31;;;2.11;100.00
35435;BME280;21556;55.782;37.528;2023-02-14T07:05:56;98810.66;;;2.20;100.00
35435;BME280;21556;55.782;37.528;2023-02-14T07:08:23;98815.25;;;2.28;100.00
35435;BME280;21556;55.782;37.528;2023-02-14T07:10:48;98822.56;;;2.14;100.00
35435;BME280;21556;55.782;37.528;2023-02-14T07:13:17;98815.94;;;2.23;100.00
35435;BME280;21556;55.782;37.528;2023-02-14T07:15:43;98820.66;;;2.34;100.00
35435;BME280;21556;55.782;37.528;2023-02-14T07:18:13;98824.75;;;2.04;100.00
35435;BME280;21556;55.782;37.528;2023-02-14T07:20:39;98829.94;;;2.53;100.00
35435;BME280;21556;55.782;37.528;2023-02-14T07:23:05;98816.63;;;2.68;100.00
35435;BME280;21556;55.782;37.528;2023-02-14T07:25:31;98827.28;;;2.26;100.00
35435;BME280;21556;55.782;37.528;2023-02-14T07:27:57;98826.44;;;2.51;100.00
35435;BME280;21556;55.782;37.528;2023-02-14T07:30:23;98825.63;;;2.79;100.00
35435;BME280;21556;55.782;37.528;2023-02-14T07:32:49;98828.81;;;2.71;100.00
35435;BME280;21556;55.782;37.528;2023-02-14T07:35:15;98839.53;;;2.32;100.00
35435;BME280;21556;55.782;37.528;2023-02-14T07:37:41;98837.91;;;2.34;100.00
35435;BME280;21556;55.782;37.528;2023-02-14T07:40:08;98845.09;;;2.42;100.00
35435;BME280;21556;55.782;37.528;2023-02-14T07:42:34;98850.84;;;2.34;100.00
35435;BME280;21556;55.782;37.528;2023-02-14T07:45:00;98854.16;;;2.30;100.00
35435;BME280;21556;55.782;37.528;2023-02-14T07:47:29;98856.53;;;2.49;100.00
35435;BME280;21556;55.782;37.528;2023-02-14T07:49:55;98857.38;;;2.48;100.00
35435;BME280;21556;55.782;37.528;2023-02-14T07:52:21;98867.16;;;2.07;100.00
35435;BME280;21556;55.782;37.528;2023-02-14T07:54:47;98861.47;;;2.41;100.00
35435;BME280;21556;55.782;37.528;2023-02-14T07:57:12;98858.59;;;2.58;100.00
35435;BME280;21556;55.782;37.528;2023-02-14T07:59:41;98852.31;;;2.51;100.00
35435;BME280;21556;55.782;37.528;2023-02-14T08:02:11;98856.88;;;2.34;100.00
35435;BME280;21556;55.782;37.528;2023-02-14T08:04:37;98865.53;;;2.59;100.00
35435;BME280;21556;55.782;37.528;2023-02-14T08:07:03;98869.72;;;2.55;100.00
35435;BME280;21556;55.782;37.528;2023-02-14T08:09:32;98866.25;;;2.55;100.00
35435;BME280;21556;55.782;37.528;2023-02-14T08:11:59;98877.00;;;2.41;100.00
35435;BME280;21556;55.782;37.528;2023-02-14T08:14:43;98873.22;;;2.83;100.00
35435;BME280;21556;55.782;37.528;2023-02-14T08:17:10;98873.78;;;2.73;100.00
35435;BME280;21556;55.782;37.528;2023-02-14T08:19:39;98876.91;;;2.89;100.00
35435;BME280;21556;55.782;37.528;2023-02-14T08:22:05;98880.72;;;2.99;100.00
35435;BME280;21556;55.782;37.528;2023-02-14T08:24:31;98879.38;;;2.61;100.00
35435;BME280;21556;55.782;37.528;2023-02-14T08:26:57;98879.00;;;2.50;100.00
35435;BME280;21556;55.782;37.528;2023-02-14T08:29:24;98895.38;;;2.01;100.00
35435;BME280;21556;55.782;37.528;2023-02-14T08:31:50;98893.53;;;2.45;100.00
35435;BME280;21556;55.782;37.528;2023-02-14T08:34:17;98895.91;;;2.64;100.00
35435;BME280;21556;55.782;37.528;2023-02-14T08:36:43;98897.69;;;2.65;100.00
35435;BME280;21556;55.782;37.528;2023-02-14T08:39:10;98899.91;;;2.31;100.00
35435;BME280;21556;55.782;37.528;2023-02-14T08:41:36;98907.22;;;2.19;100.00
35435;BME280;21556;55.782;37.528;2023-02-14T08:44:02;98919.63;;;2.51;100.00
35435;BME280;21556;55.782;37.528;2023-02-14T08:46:28;98917.88;;;2.76;100.00
35435;BME280;21556;55.782;37.528;2023-02-14T08:48:55;98919.72;;;2.78;100.00
35435;BME280;21556;55.782;37.528;2023-02-14T08:51:21;98918.84;;;2.78;100.00
35435;BME280;21556;55.782;37.528;2023-02-14T08:53:49;98921.81;;;2.64;100.00
35435;BME280;21556;55.782;37.528;2023-02-14T08:56:17;98940.78;;;2.63;100.00
35435;BME280;21556;55.782;37.528;2023-02-14T08:58:44;98941.47;;;2.58;100.00
35435;BME280;21556;55.782;37.528;2023-02-14T09:01:12;98945.78;;;2.83;100.00
35435;BME280;21556;55.782;37.528;2023-02-14T09:03:38;98943.19;;;2.83;100.00
35435;BME280;21556;55.782;37.528;2023-02-14T09:06:06;98951.66;;;3.03;100.00
35435;BME280;21556;55.782;37.528;2023-02-14T09:08:33;98951.13;;;2.87;100.00
35435;BME280;21556;55.782;37.528;2023-02-14T09:11:19;98948.38;;;2.83;100.00
35435;BME280;21556;55.782;37.528;2023-02-14T09:13:49;98948.38;;;2.83;100.00
35435;BME280;21556;55.782;37.528;2023-02-14T09:16:16;98958.41;;;2.74;100.00
35435;BME280;21556;55.782;37.528;2023-02-14T09:18:47;98960.81;;;2.93;100.00
35435;BME280;21556;55.782;37.528;2023-02-14T09:21:16;98965.25;;;2.96;100.00
35435;BME280;21556;55.782;37.528;2023-02-14T09:23:42;98971.97;;;2.91;100.00
35435;BME280;21556;55.782;37.528;2023-02-14T09:26:10;98971.88;;;2.87;100.00
35435;BME280;21556;55.782;37.528;2023-02-14T09:28:37;98981.06;;;2.55;100.00
35435;BME280;21556;55.782;37.528;2023-02-14T09:31:15;98977.19;;;2.44;100.00
35435;BME280;21556;55.782;37.528;2023-02-14T09:33:42;98971.69;;;2.83;100.00
35435;BME280;21556;55.782;37.528;2023-02-14T09:36:27;98972.31;;;3.01;100.00
35435;BME280;21556;55.782;37.528;2023-02-14T09:38:53;98977.63;;;3.04;100.00
35435;BME280;21556;55.782;37.528;2023-02-14T09:44:01;98985.97;;;2.96;100.00
35435;BME280;21556;55.782;37.528;2023-02-14T09:46:30;98995.59;;;2.76;100.00
35435;BME280;21556;55.782;37.528;2023-02-14T09:49:03;98992.78;;;2.94;100.00
35435;BME280;21556;55.782;37.528;2023-02-14T09:51:30;98997.06;;;2.92;100.00
35435;BME280;21556;55.782;37.528;2023-02-14T09:56:40;99000.03;;;2.78;100.00
35435;BME280;21556;55.782;37.528;2023-02-14T09:59:18;99012.63;;;2.93;100.00
35435;BME280;21556;55.782;37.528;2023-02-14T10:01:51;99008.28;;;2.92;100.00
35435;BME280;21556;55.782;37.528;2023-02-14T10:04:32;99023.00;;;2.93;100.00
35435;BME280;21556;55.782;37.528;2023-02-14T10:10:15;99033.53;;;2.98;100.00
35435;BME280;21556;55.782;37.528;2023-02-14T10:12:58;99037.72;;;2.70;100.00
35435;BME280;21556;55.782;37.528;2023-02-14T10:15:32;99038.66;;;2.72;100.00
35435;BME280;21556;55.782;37.528;2023-02-14T10:18:19;99047.59;;;2.80;100.00
35435;BME280;21556;55.782;37.528;2023-02-14T10:20:52;99045.34;;;2.65;100.00
35435;BME280;21556;55.782;37.528;2023-02-14T10:23:33;99047.13;;;2.68;100.00
35435;BME280;21556;55.782;37.528;2023-02-14T10:26:15;99053.66;;;2.81;100.00
35435;BME280;21556;55.782;37.528;2023-02-14T10:28:46;99065.13;;;2.65;100.00
35435;BME280;21556;55.782;37.528;2023-02-14T10:34:01;99073.75;;;2.64;100.00
35435;BME280;21556;55.782;37.528;2023-02-14T10:36:33;99070.41;;;2.67;100.00
35435;BME280;21556;55.782;37.528;2023-02-14T10:39:14;99075.81;;;2.73;100.00
35435;BME280;21556;55.782;37.528;2023-02-14T10:41:44;99075.03;;;2.53;100.00
35435;BME280;21556;55.782;37.528;2023-02-14T10:44:22;99069.63;;;2.69;100.00
35435;BME280;21556;55.782;37.528;2023-02-14T10:49:58;99071.50;;;2.97;100.00
35435;BME280;21556;55.782;37.528;2023-02-14T10:52:40;99073.91;;;2.91;100.00
35435;BME280;21556;55.782;37.528;2023-02-14T10:55:17;99073.38;;;2.77;100.00
35435;BME280;21556;55.782;37.528;2023-02-14T10:57:49;99082.78;;;2.51;100.00
35435;BME280;21556;55.782;37.528;2023-02-14T11:00:30;99095.13;;;2.58;100.00
35435;BME280;21556;55.782;37.528;2023-02-14T11:02:59;99093.75;;;2.68;100.00
35435;BME280;21556;55.782;37.528;2023-02-14T11:05:27;99105.28;;;2.54;100.00
35435;BME280;21556;55.782;37.528;2023-02-14T11:07:54;99104.59;;;2.58;100.00
35435;BME280;21556;55.782;37.528;2023-02-14T11:10:33;99111.84;;;2.67;100.00
35435;BME280;21556;55.782;37.528;2023-02-14T11:13:00;99109.78;;;2.80;100.00
35435;BME280;21556;55.782;37.528;2023-02-14T11:15:38;99110.50;;;2.76;100.00
35435;BME280;21556;55.782;37.528;2023-02-14T11:18:21;99107.06;;;2.77;100.00
35435;BME280;21556;55.782;37.528;2023-02-14T11:21:10;99117.97;;;2.91;100.00
35435;BME280;21556;55.782;37.528;2023-02-14T11:23:42;99118.19;;;2.75;100.00
35435;BME280;21556;55.782;37.528;2023-02-14T11:26:28;99120.94;;;2.57;100.00
35435;BME280;21556;55.782;37.528;2023-02-14T11:29:11;99122.25;;;2.68;100.00
35435;BME280;21556;55.782;37.528;2023-02-14T11:31:39;99137.50;;;2.60;100.00
35435;BME280;21556;55.782;37.528;2023-02-14T11:34:44;99131.03;;;2.94;100.00
35435;BME280;21556;55.782;37.528;2023-02-14T11:37:23;99140.56;;;2.95;100.00
35435;BME280;21556;55.782;37.528;2023-02-14T11:39:51;99133.22;;;3.07;100.00
35435;BME280;21556;55.782;37.528;2023-02-14T11:42:42;99131.19;;;3.23;100.00
35435;BME280;21556;55.782;37.528;2023-02-14T11:45:26;99145.34;;;3.08;100.00
35435;BME280;21556;55.782;37.528;2023-02-14T11:48:24;99143.03;;;3.38;100.00
35435;BME280;21556;55.782;37.528;2023-02-14T11:53:32;99139.72;;;3.43;100.00
35435;BME280;21556;55.782;37.528;2023-02-14T11:56:02;99147.72;;;3.25;100.00
35435;BME280;21556;55.782;37.528;2023-02-14T12:00:56;99142.81;;;3.56;100.00
35435;BME280;21556;55.782;37.528;2023-02-14T12:03:22;99148.00;;;3.56;100.00
35435;BME280;21556;55.782;37.528;2023-02-14T12:05:49;99161.28;;;3.18;100.00
35435;BME280;21556;55.782;37.528;2023-02-14T12:08:23;99167.44;;;3.21;100.00
35435;BME280;21556;55.782;37.528;2023-02-14T12:11:18;99170.69;;;3.38;100.00
35435;BME280;21556;55.782;37.528;2023-02-14T12:13:56;99172.00;;;3.04;100.00
35435;BME280;21556;55.782;37.528;2023-02-14T12:16:34;99179.41;;;3.18;100.00
35435;BME280;21556;55.782;37.528;2023-02-14T12:19:09;99181.44;;;3.49;100.00
35435;BME280;21556;55.782;37.528;2023-02-14T12:24:17;99182.03;;;3.42;100.00
35435;BME280;21556;55.782;37.528;2023-02-14T12:32:29;99198.00;;;3.52;100.00
35435;BME280;21556;55.782;37.528;2023-02-14T12:43:31;99218.50;;;3.46;100.00
35435;BME280;21556;55.782;37.528;2023-02-14T12:49:16;99235.91;;;3.49;100.00
35435;BME280;21556;55.782;37.528;2023-02-14T12:54:35;99244.84;;;3.12;100.00
35435;BME280;21556;55.782;37.528;2023-02-14T13:03:06;99257.19;;;3.18;100.00
35435;BME280;21556;55.782;37.528;2023-02-14T13:05:49;99256.00;;;3.09;100.00
35435;BME280;21556;55.782;37.528;2023-02-14T13:08:43;99260.66;;;3.18;100.00
35435;BME280;21556;55.782;37.528;2023-02-14T13:11:29;99274.19;;;3.33;100.00
35435;BME280;21556;55.782;37.528;2023-02-14T13:14:19;99270.53;;;3.51;100.00
35435;BME280;21556;55.782;37.528;2023-02-14T13:16:57;99278.75;;;3.17;100.00
35435;BME280;21556;55.782;37.528;2023-02-14T13:22:19;99279.50;;;3.14;100.00
35435;BME280;21556;55.782;37.528;2023-02-14T13:24:49;99288.31;;;2.97;100.00
35435;BME280;21556;55.782;37.528;2023-02-14T13:27:22;99295.59;;;3.05;100.00
35435;BME280;21556;55.782;37.528;2023-02-14T13:29:52;99298.81;;;3.00;100.00
35435;BME280;21556;55.782;37.528;2023-02-14T13:32:22;99298.69;;;2.97;100.00
35435;BME280;21556;55.782;37.528;2023-02-14T13:34:49;99308.88;;;2.92;100.00
35435;BME280;21556;55.782;37.528;2023-02-14T13:37:18;99311.25;;;3.08;100.00
35435;BME280;21556;55.782;37.528;2023-02-14T13:39:49;99336.63;;;2.95;100.00
35435;BME280;21556;55.782;37.528;2023-02-14T13:48:21;99326.25;;;2.74;100.00
35435;BME280;21556;55.782;37.528;2023-02-14T13:53:29;99335.84;;;2.97;100.00
35435;BME280;21556;55.782;37.528;2023-02-14T13:55:55;99342.94;;;2.80;100.00
35435;BME280;21556;55.782;37.528;2023-02-14T13:58:21;99349.84;;;2.80;100.00
35435;BME280;21556;55.782;37.528;2023-02-14T14:00:52;99357.34;;;2.74;100.00
35435;BME280;21556;55.782;37.528;2023-02-14T14:06:10;99371.75;;;3.09;100.00
35435;BME280;21556;55.782;37.528;2023-02-14T14:08:45;99376.88;;;3.07;100.00
35435;BME280;21556;55.782;37.528;2023-02-14T14:14:00;99384.88;;;2.72;100.00
35435;BME280;21556;55.782;37.528;2023-02-14T14:16:33;99388.56;;;2.77;100.00
35435;BME280;21556;55.782;37.528;2023-02-14T14:21:33;99403.00;;;2.72;100.00
35435;BME280;21556;55.782;37.528;2023-02-14T14:24:25;99401.19;;;2.90;100.00
35435;BME280;21556;55.782;37.528;2023-02-14T14:26:58;99411.66;;;2.72;100.00
35435;BME280;21556;55.782;37.528;2023-02-14T14:31:57;99411.94;;;2.78;100.00
35435;BME280;21556;55.782;37.528;2023-02-14T14:34:26;99428.31;;;2.77;100.00
35435;BME280;21556;55.782;37.528;2023-02-14T14:37:03;99425.75;;;2.98;100.00
35435;BME280;21556;55.782;37.528;2023-02-14T14:39:34;99423.06;;;2.97;100.00
35435;BME280;21556;55.782;37.528;2023-02-14T14:42:08;99430.47;;;2.87;100.00
35435;BME280;21556;55.782;37.528;2023-02-14T14:47:19;99433.75;;;2.83;100.00
35435;BME280;21556;55.782;37.528;2023-02-14T14:49:46;99432.88;;;2.63;100.00
35435;BME280;21556;55.782;37.528;2023-02-14T14:52:33;99445.47;;;2.75;100.00
35435;BME280;21556;55.782;37.528;2023-02-14T14:55:01;99449.69;;;2.93;100.00
35435;BME280;21556;55.782;37.528;2023-02-14T14:57:30;99450.56;;;2.93;100.00
35435;BME280;21556;55.782;37.528;2023-02-14T15:00:16;99451.63;;;2.77;100.00
35435;BME280;21556;55.782;37.528;2023-02-14T15:02:55;99461.78;;;2.53;100.00
35435;BME280;21556;55.782;37.528;2023-02-14T15:05:38;99468.09;;;2.79;100.00
35435;BME280;21556;55.782;37.528;2023-02-14T15:10:56;99475.13;;;2.82;100.00